Terminal Aerodrome Forecast
Issued by NWS Cleveland, OH

Home | Current Version | Previous Version | Graphics & Text | Print | Product List | Glossary On
Versions: 1 2 3 4 5 6 7 8 9 10 11 12 13 14 15 16 17 18 19 20 21 22 23 24 25 26 27
314
FTUS41 KCLE 251322 AAA
TAFTOL
TAF AMD
KTOL 251322Z 2513/2612 06010KT P6SM BKN007 OVC015
      TEMPO 2515/2519 5SM -SHRA SCT007 OVC015
     FM251900 01007KT P6SM VCSH OVC020
     FM252100 32007KT P6SM SCT010 OVC020
     FM260600 31008KT P6SM SCT007 OVC010=

USA.gov is the U.S. government's official web portal to all federal, state and local government web resources and services.